Time;durP1;ratioP1;P1;durP2;ratioP2;P2;SDS_P1;SDS_P2;PMS_P1;PMS_P2;Temp;Humidity;BMP_temperature;BMP_pressure;BME280_temperature;BME280_humidity;BME280_pressure;Samples;Min_cycle;Max_cycle;Signal;HPM_P1;HPM_P2
2023/05/01 00:02:18;;;;;;;;;;;12.60;91.20;;;;;;5047020;28;19981;-67
2023/05/01 00:04:43;;;;;;;;;;;12.50;91.20;;;;;;5047531;28;19965;-67
2023/05/01 00:07:09;;;;;;;;;;;12.50;91.30;;;;;;5047212;28;19921;-67
2023/05/01 00:09:34;;;;;;;;;;;12.50;91.30;;;;;;5047376;28;20381;-67
2023/05/01 00:12:01;;;;;;;;;;;12.40;91.30;;;;;;5047021;28;20019;-67
2023/05/01 00:14:27;;;;;;;;;;;12.40;91.30;;;;;;5047513;28;19932;-67
2023/05/01 00:16:53;;;;;;;;;;;12.40;91.40;;;;;;5047119;28;20561;-67
2023/05/01 00:19:18;;;;;;;;;;;12.30;91.40;;;;;;5047453;28;19965;-67
2023/05/01 00:21:44;;;;;;;;;;;12.30;91.40;;;;;;5047176;28;20266;-67
2023/05/01 00:24:10;;;;;;;;;;;12.30;91.40;;;;;;5029146;28;19909;-67
2023/05/01 00:26:35;;;;;;;;;;;12.30;91.50;;;;;;5029086;28;19921;-67
2023/05/01 00:29:01;;;;;;;;;;;12.30;91.50;;;;;;5047395;28;20277;-67
2023/05/01 00:31:27;;;;;;;;;;;12.20;91.50;;;;;;5047164;28;20475;-67
2023/05/01 00:33:52;;;;;;;;;;;12.20;91.40;;;;;;5046903;28;19999;-69
2023/05/01 00:36:18;;;;;;;;;;;12.20;91.60;;;;;;5032573;28;19938;-69
2023/05/01 00:38:45;;;;;;;;;;;12.10;91.70;;;;;;5027241;28;19996;-69
2023/05/01 00:41:10;;;;;;;;;;;12.10;91.60;;;;;;5035807;28;19966;-69
2023/05/01 00:43:36;;;;;;;;;;;12.10;91.60;;;;;;5046492;28;19925;-69
2023/05/01 00:46:02;;;;;;;;;;;12.10;91.60;;;;;;5046889;28;19913;-69
2023/05/01 00:48:27;;;;;;;;;;;12.00;91.70;;;;;;5046466;28;20431;-69
2023/05/01 00:50:54;;;;;;;;;;;12.00;91.70;;;;;;5046928;28;19948;-69
2023/05/01 00:53:20;;;;;;;;;;;12.00;91.70;;;;;;5046503;28;20342;-69
2023/05/01 00:55:46;;;;;;;;;;;11.90;91.70;;;;;;5028709;28;19917;-69
2023/05/01 00:58:12;;;;;;;;;;;11.90;91.70;;;;;;5046049;28;20012;-69
2023/05/01 01:00:38;;;;;;;;;;;11.90;91.80;;;;;;5027961;28;19959;-69
2023/05/01 01:03:03;;;;;;;;;;;11.90;91.80;;;;;;5046350;28;20591;-69
2023/05/01 01:05:31;;;;;;;;;;;11.80;91.80;;;;;;5046927;28;19913;-69
2023/05/01 01:08:15;;;;;;;;;;;11.80;91.90;;;;;;5046462;28;19912;-69
2023/05/01 01:10:41;;;;;;;;;;;11.80;91.80;;;;;;5046427;28;19913;-69
2023/05/01 01:13:24;;;;;;;;;;;11.80;91.90;;;;;;5044022;28;19912;-69
2023/05/01 01:15:58;;;;;;;;;;;11.70;92.10;;;;;;5026691;28;20400;-70
2023/05/01 01:18:53;;;;;;;;;;;11.70;91.80;;;;;;5026542;28;20652;-69
2023/05/01 01:21:32;;;;;;;;;;;11.70;91.80;;;;;;4989205;28;19921;-69
2023/05/01 01:24:03;;;;;;;;;;;11.60;91.80;;;;;;5029389;28;19924;-69
2023/05/01 01:26:40;;;;;;;;;;;11.60;91.90;;;;;;5046196;28;20375;-69
2023/05/01 01:29:28;;;;;;;;;;;11.60;91.80;;;;;;5046383;28;19915;-69
2023/05/01 01:31:56;;;;;;;;;;;11.50;91.90;;;;;;5043663;28;19965;-69
2023/05/01 01:34:42;;;;;;;;;;;11.60;91.90;;;;;;5041563;28;19913;-69
2023/05/01 01:37:16;;;;;;;;;;;11.50;91.90;;;;;;5041351;28;19913;-69
2023/05/01 01:39:46;;;;;;;;;;;11.50;91.90;;;;;;5026616;28;19909;-69
2023/05/01 01:42:18;;;;;;;;;;;11.50;92.00;;;;;;5043023;28;20365;-69
2023/05/01 01:44:48;;;;;;;;;;;11.40;91.90;;;;;;5046053;28;20357;-69
2023/05/01 01:47:14;;;;;;;;;;;11.40;92.00;;;;;;5044754;28;19955;-69
2023/05/01 01:49:43;;;;;;;;;;;11.40;92.30;;;;;;5045911;28;19909;-69
2023/05/01 01:52:11;;;;;;;;;;;11.40;92.00;;;;;;5045723;28;19913;-69
2023/05/01 01:54:39;;;;;;;;;;;11.40;92.00;;;;;;5045870;28;19909;-69
2023/05/01 01:57:07;;;;;;;;;;;11.40;92.00;;;;;;5045786;28;19912;-69
2023/05/01 01:59:33;;;;;;;;;;;11.30;92.10;;;;;;5045308;28;20076;-69
2023/05/01 02:02:00;;;;;;;;;;;11.30;92.10;;;;;;5045210;28;19912;-69
2023/05/01 02:04:26;;;;;;;;;;;11.30;92.10;;;;;;5045598;28;20531;-69
2023/05/01 02:06:53;;;;;;;;;;;11.30;92.10;;;;;;5045389;28;20366;-69
2023/05/01 02:09:19;;;;;;;;;;;11.20;92.10;;;;;;5045818;28;19967;-69
2023/05/01 02:11:45;;;;;;;;;;;11.20;92.00;;;;;;5045307;28;19996;-69
2023/05/01 02:14:12;;;;;;;;;;;11.20;92.10;;;;;;5045381;28;20681;-69
2023/05/01 02:16:39;;;;;;;;;;;11.20;92.10;;;;;;5045351;28;19944;-69
2023/05/01 02:19:05;;;;;;;;;;;11.20;92.10;;;;;;5045456;28;20368;-69
2023/05/01 02:21:32;;;;;;;;;;;11.20;92.10;;;;;;5045661;28;19921;-69
2023/05/01 02:24:00;;;;;;;;;;;11.10;92.00;;;;;;5045402;28;19913;-69
2023/05/01 02:26:27;;;;;;;;;;;11.20;92.10;;;;;;5045503;28;20025;-69
2023/05/01 02:28:53;;;;;;;;;;;11.10;92.10;;;;;;5045569;28;19978;-69
2023/05/01 02:31:19;;;;;;;;;;;11.10;92.10;;;;;;5045034;28;19917;-69
2023/05/01 02:33:44;;;;;;;;;;;11.10;92.10;;;;;;5044661;28;19937;-69
2023/05/01 02:36:12;;;;;;;;;;;11.10;92.10;;;;;;5032145;28;19909;-69
2023/05/01 02:38:37;;;;;;;;;;;11.10;92.10;;;;;;5025281;28;19909;-69
2023/05/01 02:41:03;;;;;;;;;;;11.10;92.10;;;;;;5077611;28;19920;-69
2023/05/01 02:43:31;;;;;;;;;;;11.00;92.10;;;;;;5045006;28;19959;-69
2023/05/01 02:45:57;;;;;;;;;;;11.10;92.50;;;;;;5045453;28;19913;-69
2023/05/01 02:48:26;;;;;;;;;;;11.00;92.20;;;;;;5026839;28;19993;-69
2023/05/01 02:50:52;;;;;;;;;;;11.00;92.20;;;;;;5045181;28;19913;-69
2023/05/01 02:53:19;;;;;;;;;;;11.00;92.10;;;;;;5044997;28;19920;-69
2023/05/01 02:55:44;;;;;;;;;;;11.00;92.10;;;;;;5045194;28;19920;-69
2023/05/01 02:58:14;;;;;;;;;;;11.00;92.20;;;;;;5044584;28;19913;-69
2023/05/01 03:00:39;;;;;;;;;;;11.00;92.20;;;;;;5047550;28;20272;-69
2023/05/01 03:03:05;;;;;;;;;;;11.00;92.20;;;;;;5048168;28;19909;-69
2023/05/01 03:05:30;;;;;;;;;;;11.00;92.20;;;;;;5048414;28;19917;-69
2023/05/01 03:07:56;;;;;;;;;;;11.00;92.20;;;;;;5048289;28;20640;-69
2023/05/01 03:10:22;;;;;;;;;;;11.00;92.30;;;;;;5048344;28;19919;-69
2023/05/01 03:12:47;;;;;;;;;;;11.00;92.30;;;;;;5047568;28;19997;-69
2023/05/01 03:15:13;;;;;;;;;;;10.90;92.20;;;;;;5048524;28;19913;-69
2023/05/01 03:17:38;;;;;;;;;;;11.00;92.30;;;;;;5048063;28;19981;-69
2023/05/01 03:20:05;;;;;;;;;;;10.90;92.30;;;;;;5048418;28;19913;-69
2023/05/01 03:22:31;;;;;;;;;;;10.90;92.40;;;;;;5030013;28;20375;-69
2023/05/01 03:24:57;;;;;;;;;;;11.00;92.40;;;;;;5048507;28;19916;-69
2023/05/01 03:27:23;;;;;;;;;;;10.90;92.70;;;;;;5047928;28;20269;-69
2023/05/01 03:29:48;;;;;;;;;;;10.90;92.40;;;;;;5048133;28;19913;-69
2023/05/01 03:32:15;;;;;;;;;;;10.90;92.40;;;;;;5047506;28;19913;-69
2023/05/01 03:34:41;;;;;;;;;;;10.90;92.40;;;;;;5048155;28;19913;-67
2023/05/01 03:37:06;;;;;;;;;;;10.90;92.40;;;;;;5027900;28;19919;-67
2023/05/01 03:39:31;;;;;;;;;;;10.90;92.40;;;;;;5028320;28;19916;-66
2023/05/01 03:41:57;;;;;;;;;;;10.90;92.70;;;;;;5043166;28;19909;-67
2023/05/01 03:44:23;;;;;;;;;;;10.90;92.40;;;;;;5048103;28;19913;-67
2023/05/01 03:46:48;;;;;;;;;;;10.80;92.40;;;;;;5047555;28;19917;-67
2023/05/01 03:49:14;;;;;;;;;;;10.90;92.50;;;;;;5047810;28;20285;-67
2023/05/01 03:51:39;;;;;;;;;;;10.80;92.50;;;;;;5047638;28;19909;-67
2023/05/01 03:54:05;;;;;;;;;;;10.80;92.50;;;;;;5047554;28;19952;-67
2023/05/01 03:56:34;;;;;;;;;;;10.80;92.50;;;;;;5029813;28;20008;-67
2023/05/01 03:59:00;;;;;;;;;;;10.80;92.50;;;;;;5046428;28;19913;-67
2023/05/01 04:01:25;;;;;;;;;;;10.80;92.40;;;;;;5047144;28;20699;-67
2023/05/01 04:03:52;;;;;;;;;;;10.80;92.50;;;;;;5047177;28;19916;-66
2023/05/01 04:06:18;;;;;;;;;;;10.80;92.50;;;;;;5047162;28;19920;-66
2023/05/01 04:08:43;;;;;;;;;;;10.80;92.60;;;;;;5047495;28;19948;-67
2023/05/01 04:11:09;;;;;;;;;;;10.70;92.50;;;;;;5047358;28;20000;-67
2023/05/01 04:13:35;;;;;;;;;;;10.70;92.60;;;;;;5045754;28;20459;-66
2023/05/01 04:16:00;;;;;;;;;;;10.70;92.60;;;;;;5037467;27;19913;-67
2023/05/01 04:18:26;;;;;;;;;;;10.70;92.50;;;;;;5034517;28;19917;-67
2023/05/01 04:20:52;;;;;;;;;;;10.70;92.60;;;;;;5041661;28;19936;-67
2023/05/01 04:23:17;;;;;;;;;;;10.70;92.60;;;;;;5046743;28;19913;-67
2023/05/01 04:25:43;;;;;;;;;;;10.70;92.60;;;;;;5047055;28;19917;-66
2023/05/01 04:28:11;;;;;;;;;;;10.70;92.60;;;;;;5046834;28;19923;-66
2023/05/01 04:30:37;;;;;;;;;;;10.70;92.60;;;;;;5029117;28;19909;-67
2023/05/01 04:33:07;;;;;;;;;;;10.70;92.60;;;;;;5028351;28;19909;-66
2023/05/01 04:35:32;;;;;;;;;;;10.60;92.50;;;;;;5041412;28;19913;-67
2023/05/01 04:37:58;;;;;;;;;;;10.60;92.60;;;;;;5026904;28;19918;-66
2023/05/01 04:40:23;;;;;;;;;;;10.60;92.50;;;;;;5029355;28;19981;-67
2023/05/01 04:42:49;;;;;;;;;;;10.60;92.50;;;;;;5046158;28;19909;-67
2023/05/01 04:45:15;;;;;;;;;;;10.60;92.60;;;;;;5046811;28;19909;-67
2023/05/01 04:47:40;;;;;;;;;;;10.60;92.60;;;;;;5028440;28;20527;-67
2023/05/01 04:50:06;;;;;;;;;;;10.60;92.50;;;;;;5046295;28;20372;-66
2023/05/01 04:52:32;;;;;;;;;;;10.60;92.50;;;;;;5028196;28;19962;-67
2023/05/01 04:54:57;;;;;;;;;;;10.60;92.60;;;;;;5046587;28;19920;-67
2023/05/01 04:57:23;;;;;;;;;;;10.60;92.60;;;;;;5028336;28;20331;-66
2023/05/01 04:59:48;;;;;;;;;;;10.60;92.60;;;;;;5028234;28;19913;-67
2023/05/01 05:02:14;;;;;;;;;;;10.60;92.60;;;;;;5045923;28;19913;-67
2023/05/01 05:04:40;;;;;;;;;;;10.60;92.60;;;;;;5046036;28;20370;-67
2023/05/01 05:07:05;;;;;;;;;;;10.60;92.60;;;;;;5045978;28;19924;-66
2023/05/01 05:09:31;;;;;;;;;;;10.60;92.60;;;;;;5027854;28;19957;-66
2023/05/01 05:11:56;;;;;;;;;;;10.60;92.60;;;;;;5045187;28;19968;-67
2023/05/01 05:14:22;;;;;;;;;;;10.60;92.70;;;;;;5044679;28;20433;-67
2023/05/01 05:16:47;;;;;;;;;;;10.50;92.60;;;;;;5045401;28;19913;-66
2023/05/01 05:19:13;;;;;;;;;;;10.50;92.50;;;;;;5045926;28;19912;-66
2023/05/01 05:21:38;;;;;;;;;;;10.50;92.50;;;;;;5045126;28;20354;-67
2023/05/01 05:24:04;;;;;;;;;;;10.60;92.50;;;;;;5044832;28;19966;-66
2023/05/01 05:26:29;;;;;;;;;;;10.60;92.60;;;;;;5043990;28;19961;-67
2023/05/01 05:28:55;;;;;;;;;;;10.60;92.50;;;;;;5046073;28;19909;-67
2023/05/01 05:31:20;;;;;;;;;;;10.60;92.50;;;;;;5046139;28;19919;-67
2023/05/01 05:33:46;;;;;;;;;;;10.60;92.50;;;;;;5045563;28;19916;-67
2023/05/01 05:36:12;;;;;;;;;;;10.60;92.50;;;;;;5033593;28;19920;-67
2023/05/01 05:38:37;;;;;;;;;;;10.60;92.50;;;;;;5008116;28;19996;-67
2023/05/01 05:41:03;;;;;;;;;;;10.60;92.40;;;;;;5033854;28;19920;-67
2023/05/01 05:43:28;;;;;;;;;;;10.60;92.40;;;;;;5045247;28;19913;-66
2023/05/01 05:45:58;;;;;;;;;;;10.60;92.40;;;;;;5046231;28;19913;-67
2023/05/01 05:48:24;;;;;;;;;;;10.60;92.40;;;;;;5045506;28;19948;-67
2023/05/01 05:50:52;;;;;;;;;;;10.60;92.40;;;;;;5045787;28;19952;-67
2023/05/01 05:53:21;;;;;;;;;;;10.60;92.30;;;;;;5045412;28;19916;-67
2023/05/01 05:55:47;;;;;;;;;;;10.70;92.40;;;;;;5045936;28;19917;-67
2023/05/01 05:58:18;;;;;;;;;;;10.70;92.30;;;;;;5044712;28;19917;-67
2023/05/01 06:00:48;;;;;;;;;;;10.70;92.30;;;;;;5045292;28;20385;-67
2023/05/01 06:03:14;;;;;;;;;;;10.70;92.30;;;;;;5045200;28;19912;-67
2023/05/01 06:05:41;;;;;;;;;;;10.70;92.30;;;;;;5045558;28;20426;-67
2023/05/01 06:08:06;;;;;;;;;;;10.70;92.30;;;;;;5045345;28;20032;-67
2023/05/01 06:10:32;;;;;;;;;;;10.80;92.20;;;;;;5045338;28;20012;-67
2023/05/01 06:12:57;;;;;;;;;;;10.80;92.20;;;;;;5044689;28;19909;-67
2023/05/01 06:15:23;;;;;;;;;;;10.80;92.20;;;;;;5045362;28;19912;-67
2023/05/01 06:17:49;;;;;;;;;;;10.90;92.20;;;;;;5027544;28;19913;-67
2023/05/01 06:20:15;;;;;;;;;;;10.90;92.20;;;;;;5045667;28;19961;-69
2023/05/01 06:22:40;;;;;;;;;;;10.90;92.10;;;;;;5044920;28;19929;-69
2023/05/01 06:25:06;;;;;;;;;;;11.00;92.20;;;;;;5042514;28;19924;-69
2023/05/01 06:27:32;;;;;;;;;;;11.00;92.20;;;;;;5044777;28;19917;-69
2023/05/01 06:29:57;;;;;;;;;;;11.00;92.10;;;;;;5045317;28;19920;-70
2023/05/01 06:32:23;;;;;;;;;;;11.10;92.10;;;;;;5044718;28;20366;-69
2023/05/01 06:34:48;;;;;;;;;;;11.10;92.10;;;;;;5047634;28;19996;-69
2023/05/01 06:37:14;;;;;;;;;;;11.10;92.00;;;;;;5031033;28;19912;-69
2023/05/01 06:39:39;;;;;;;;;;;11.20;92.00;;;;;;5048822;28;20546;-69
2023/05/01 06:42:06;;;;;;;;;;;11.20;92.00;;;;;;5048159;28;19909;-69
2023/05/01 06:44:32;;;;;;;;;;;11.20;92.00;;;;;;5048813;28;20029;-69
2023/05/01 06:47:00;;;;;;;;;;;11.30;91.90;;;;;;5048426;28;19932;-69
2023/05/01 06:49:26;;;;;;;;;;;11.30;91.90;;;;;;5048612;28;19944;-67
2023/05/01 06:51:51;;;;;;;;;;;11.40;91.90;;;;;;5030550;28;19919;-67
2023/05/01 06:54:17;;;;;;;;;;;11.40;91.80;;;;;;5048728;28;20353;-68
2023/05/01 06:56:43;;;;;;;;;;;11.50;91.80;;;;;;5048151;28;19913;-68
2023/05/01 06:59:08;;;;;;;;;;;11.50;91.70;;;;;;5047122;28;20003;-68
2023/05/01 07:01:34;;;;;;;;;;;11.60;91.60;;;;;;5030095;28;19913;-68
2023/05/01 07:03:59;;;;;;;;;;;11.60;91.50;;;;;;5048167;28;19982;-68
2023/05/01 07:06:26;;;;;;;;;;;11.70;91.50;;;;;;5048336;28;19909;-69
2023/05/01 07:08:52;;;;;;;;;;;11.70;91.40;;;;;;5032101;28;19920;-68
2023/05/01 07:11:17;;;;;;;;;;;11.80;91.30;;;;;;5030446;28;20003;-68
2023/05/01 07:13:43;;;;;;;;;;;11.80;91.30;;;;;;5063335;28;19913;-68
2023/05/01 07:16:08;;;;;;;;;;;11.90;91.20;;;;;;5030191;28;19916;-68
2023/05/01 07:18:34;;;;;;;;;;;12.00;91.20;;;;;;5048039;28;20298;-68
2023/05/01 07:21:00;;;;;;;;;;;12.00;91.10;;;;;;5048291;28;19969;-68
2023/05/01 07:23:26;;;;;;;;;;;12.10;91.10;;;;;;5047902;28;20530;-68
2023/05/01 07:25:52;;;;;;;;;;;12.10;91.00;;;;;;5044859;28;19921;-68
2023/05/01 07:28:19;;;;;;;;;;;12.20;91.00;;;;;;5044419;28;19920;-68
2023/05/01 07:30:44;;;;;;;;;;;12.30;90.90;;;;;;5048264;28;19917;-68
2023/05/01 07:33:10;;;;;;;;;;;12.30;90.80;;;;;;5047814;28;20372;-68
2023/05/01 07:35:36;;;;;;;;;;;12.30;90.80;;;;;;5048130;28;19927;-68
2023/05/01 07:38:01;;;;;;;;;;;12.40;90.80;;;;;;5048033;28;19909;-68
2023/05/01 07:40:27;;;;;;;;;;;12.50;90.70;;;;;;5047777;28;20414;-68
2023/05/01 07:42:53;;;;;;;;;;;12.50;90.70;;;;;;5047169;28;20306;-68
2023/05/01 07:45:18;;;;;;;;;;;12.50;90.60;;;;;;5029546;28;19963;-68
2023/05/01 07:47:43;;;;;;;;;;;12.60;90.60;;;;;;5047595;28;19999;-68
2023/05/01 07:50:10;;;;;;;;;;;12.70;90.50;;;;;;5047987;28;19944;-68
2023/05/01 07:52:36;;;;;;;;;;;12.70;90.60;;;;;;5047474;28;20273;-68
2023/05/01 07:55:02;;;;;;;;;;;12.80;90.50;;;;;;5047693;28;19909;-68
2023/05/01 07:57:27;;;;;;;;;;;12.80;90.50;;;;;;5047219;28;19916;-68
2023/05/01 07:59:54;;;;;;;;;;;12.90;90.50;;;;;;5028839;28;19919;-68
2023/05/01 08:02:19;;;;;;;;;;;13.00;90.40;;;;;;5046915;28;19913;-68
2023/05/01 08:04:46;;;;;;;;;;;13.00;90.30;;;;;;5047620;28;19961;-68
2023/05/01 08:07:12;;;;;;;;;;;13.10;90.30;;;;;;5047463;28;19952;-68
2023/05/01 08:09:38;;;;;;;;;;;13.20;90.20;;;;;;5047541;28;20004;-68
2023/05/01 08:12:03;;;;;;;;;;;13.20;90.10;;;;;;5046863;28;19916;-68
2023/05/01 08:14:29;;;;;;;;;;;13.30;90.10;;;;;;5047241;28;19909;-68
2023/05/01 08:16:55;;;;;;;;;;;13.30;90.10;;;;;;5047044;28;19920;-68
2023/05/01 08:19:20;;;;;;;;;;;13.40;90.00;;;;;;5047132;28;19920;-68
2023/05/01 08:21:46;;;;;;;;;;;13.50;90.00;;;;;;5028840;28;19925;-68
2023/05/01 08:24:11;;;;;;;;;;;13.50;89.90;;;;;;5047160;28;20261;-68
2023/05/01 08:26:37;;;;;;;;;;;13.60;89.80;;;;;;5046855;28;19916;-68
2023/05/01 08:29:02;;;;;;;;;;;13.60;90.00;;;;;;5060810;28;20000;-68
2023/05/01 08:31:28;;;;;;;;;;;13.60;89.80;;;;;;5046974;28;19924;-68
2023/05/01 08:33:53;;;;;;;;;;;13.70;89.60;;;;;;5046718;28;19913;-68
2023/05/01 08:36:19;;;;;;;;;;;13.70;89.80;;;;;;5047155;28;19912;-68
2023/05/01 08:38:44;;;;;;;;;;;13.80;89.60;;;;;;5047236;27;19916;-68
2023/05/01 08:41:15;;;;;;;;;;;13.80;89.60;;;;;;5047147;28;20357;-68
2023/05/01 08:43:40;;;;;;;;;;;13.90;89.40;;;;;;5026642;28;19909;-68
2023/05/01 08:46:08;;;;;;;;;;;13.90;89.50;;;;;;5026853;28;19924;-68
2023/05/01 08:48:34;;;;;;;;;;;13.90;89.50;;;;;;5026551;28;19917;-68
2023/05/01 08:51:00;;;;;;;;;;;14.00;89.50;;;;;;5027009;28;19921;-68
2023/05/01 08:53:30;;;;;;;;;;;14.00;89.30;;;;;;5026397;28;19926;-68
2023/05/01 08:55:56;;;;;;;;;;;14.00;89.30;;;;;;5031437;28;19917;-68
2023/05/01 08:58:23;;;;;;;;;;;14.10;89.40;;;;;;5044606;28;19916;-68
2023/05/01 09:00:49;;;;;;;;;;;14.10;89.40;;;;;;5046494;28;19913;-68
2023/05/01 09:03:15;;;;;;;;;;;14.20;89.40;;;;;;5046208;28;19997;-68
2023/05/01 09:05:41;;;;;;;;;;;14.20;89.20;;;;;;5046664;28;19986;-68
2023/05/01 09:08:06;;;;;;;;;;;14.20;89.10;;;;;;5061771;27;19973;-68
2023/05/01 09:10:32;;;;;;;;;;;14.30;89.20;;;;;;5046662;28;19962;-68
2023/05/01 09:13:01;;;;;;;;;;;14.40;89.20;;;;;;5045512;28;19940;-68
2023/05/01 09:15:27;;;;;;;;;;;14.40;89.10;;;;;;5028397;28;19917;-68
2023/05/01 09:17:53;;;;;;;;;;;14.40;88.90;;;;;;5046146;28;19959;-68
2023/05/01 09:20:19;;;;;;;;;;;14.50;88.90;;;;;;5046200;28;19916;-69
2023/05/01 09:22:44;;;;;;;;;;;14.60;88.70;;;;;;5046041;28;19921;-68
2023/05/01 09:25:10;;;;;;;;;;;14.70;88.60;;;;;;5046357;28;20300;-69
2023/05/01 09:27:36;;;;;;;;;;;14.70;88.50;;;;;;5045760;28;19932;-68
2023/05/01 09:30:02;;;;;;;;;;;14.80;88.50;;;;;;5042368;28;19920;-68
2023/05/01 09:32:28;;;;;;;;;;;14.80;88.50;;;;;;5044550;28;19974;-68
2023/05/01 09:34:54;;;;;;;;;;;14.90;88.20;;;;;;5046248;28;19913;-68
2023/05/01 09:37:27;;;;;;;;;;;14.90;88.50;;;;;;5046191;28;19909;-69
2023/05/01 09:40:06;;;;;;;;;;;15.00;88.40;;;;;;5046081;28;20023;-69
2023/05/01 09:42:32;;;;;;;;;;;15.00;88.20;;;;;;5027406;28;20011;-69
2023/05/01 09:45:02;;;;;;;;;;;15.10;88.20;;;;;;5046121;28;19908;-69
2023/05/01 09:47:28;;;;;;;;;;;15.20;88.20;;;;;;5045740;28;20380;-69
2023/05/01 09:49:55;;;;;;;;;;;15.20;88.10;;;;;;5046061;28;20044;-69
2023/05/01 09:52:21;;;;;;;;;;;15.30;88.20;;;;;;5027972;28;20464;-69
2023/05/01 09:54:46;;;;;;;;;;;15.30;88.00;;;;;;5045942;28;19917;-69
2023/05/01 09:57:12;;;;;;;;;;;15.30;88.00;;;;;;5045531;28;19919;-69
2023/05/01 09:59:38;;;;;;;;;;;15.30;88.20;;;;;;5044550;28;19913;-68
2023/05/01 10:02:03;;;;;;;;;;;15.30;88.00;;;;;;5045226;28;19919;-69
2023/05/01 10:04:30;;;;;;;;;;;15.40;88.50;;;;;;5027807;28;19920;-69
2023/05/01 10:06:56;;;;;;;;;;;15.50;88.00;;;;;;5045672;28;19921;-69
2023/05/01 10:09:28;;;;;;;;;;;15.60;88.10;;;;;;5045521;28;20402;-70
2023/05/01 10:11:58;;;;;;;;;;;15.60;87.90;;;;;;5045264;28;19955;-69
2023/05/01 10:14:25;;;;;;;;;;;15.70;87.90;;;;;;5042836;28;19917;-69
2023/05/01 10:16:55;;;;;;;;;;;15.80;87.80;;;;;;5033664;27;19917;-69
2023/05/01 10:19:21;;;;;;;;;;;15.80;87.30;;;;;;5041429;28;19971;-69
2023/05/01 10:21:46;;;;;;;;;;;15.90;87.30;;;;;;5045030;28;19956;-69
2023/05/01 10:24:14;;;;;;;;;;;16.00;87.40;;;;;;5045184;28;20362;-69
2023/05/01 10:26:41;;;;;;;;;;;16.00;87.30;;;;;;5060342;28;19917;-69
2023/05/01 10:29:07;;;;;;;;;;;16.10;87.10;;;;;;5044879;28;19948;-69
2023/05/01 10:31:33;;;;;;;;;;;16.20;86.80;;;;;;5045089;28;20028;-69
2023/05/01 10:34:01;;;;;;;;;;;16.20;87.10;;;;;;5044873;28;20015;-69
2023/05/01 10:36:31;;;;;;;;;;;16.20;86.90;;;;;;5032969;28;19917;-69
2023/05/01 10:38:56;;;;;;;;;;;16.30;87.10;;;;;;5025093;28;20381;-69
2023/05/01 10:41:40;;;;;;;;;;;16.30;86.10;;;;;;5035818;28;19937;-69
2023/05/01 10:44:33;;;;;;;;;;;16.30;86.60;;;;;;5044971;28;20459;-69
2023/05/01 10:46:59;;;;;;;;;;;16.30;87.40;;;;;;5043273;28;19917;-69
2023/05/01 10:49:44;;;;;;;;;;;16.30;87.50;;;;;;5044879;28;19919;-69
2023/05/01 10:52:10;;;;;;;;;;;16.40;87.40;;;;;;5044298;28;19919;-69
2023/05/01 10:54:35;;;;;;;;;;;16.40;86.80;;;;;;5044901;28;19913;-69
2023/05/01 10:57:02;;;;;;;;;;;16.60;86.40;;;;;;5026983;28;19912;-69
2023/05/01 10:59:46;;;;;;;;;;;16.70;86.30;;;;;;5043312;28;19977;-69
2023/05/01 11:02:20;;;;;;;;;;;16.80;86.20;;;;;;5044145;28;19920;-69
2023/05/01 11:04:48;;;;;;;;;;;16.80;86.20;;;;;;5044887;28;20019;-69
2023/05/01 11:07:14;;;;;;;;;;;16.80;86.40;;;;;;5044275;28;20007;-69
2023/05/01 11:09:40;;;;;;;;;;;16.80;86.50;;;;;;5044844;28;19913;-69
2023/05/01 11:12:07;;;;;;;;;;;16.90;86.50;;;;;;5044229;28;19955;-70
2023/05/01 11:14:51;;;;;;;;;;;16.90;86.70;;;;;;5044678;28;19917;-69
2023/05/01 11:17:36;;;;;;;;;;;17.00;86.70;;;;;;5044344;28;19917;-69
2023/05/01 11:20:02;;;;;;;;;;;17.00;86.60;;;;;;5027426;28;19913;-69
2023/05/01 11:22:28;;;;;;;;;;;17.10;86.30;;;;;;5047646;28;20730;-69
2023/05/01 11:24:54;;;;;;;;;;;17.20;86.00;;;;;;5047846;28;19913;-69
2023/05/01 11:27:20;;;;;;;;;;;17.30;85.90;;;;;;5047235;28;19923;-70
2023/05/01 11:29:47;;;;;;;;;;;17.40;85.50;;;;;;5047683;28;19948;-69
2023/05/01 11:32:15;;;;;;;;;;;17.40;85.40;;;;;;5047498;28;19913;-69
2023/05/01 11:34:40;;;;;;;;;;;17.50;85.10;;;;;;5047706;28;19921;-70
2023/05/01 11:37:06;;;;;;;;;;;17.60;85.30;;;;;;5048167;28;19917;-70
2023/05/01 11:39:31;;;;;;;;;;;17.70;85.00;;;;;;5047813;28;19919;-70
2023/05/01 11:42:07;;;;;;;;;;;17.70;85.00;;;;;;5047373;28;19917;-70
2023/05/01 11:44:33;;;;;;;;;;;17.70;85.10;;;;;;5029909;28;19909;-69
2023/05/01 11:47:00;;;;;;;;;;;17.70;85.30;;;;;;5047499;28;19924;-70
2023/05/01 11:49:26;;;;;;;;;;;17.70;85.50;;;;;;5047525;28;19913;-69
2023/05/01 11:51:55;;;;;;;;;;;17.70;85.70;;;;;;5047451;28;19990;-70
2023/05/01 11:54:20;;;;;;;;;;;17.70;86.10;;;;;;5047659;28;19958;-70
2023/05/01 11:56:46;;;;;;;;;;;17.60;86.20;;;;;;5047615;28;20316;-70
2023/05/01 11:59:15;;;;;;;;;;;17.60;86.20;;;;;;5046215;28;19909;-69
2023/05/01 12:01:42;;;;;;;;;;;17.60;86.80;;;;;;5047033;28;19915;-69
2023/05/01 12:04:07;;;;;;;;;;;17.60;87.10;;;;;;5047073;28;19913;-69
2023/05/01 12:06:42;;;;;;;;;;;17.60;87.20;;;;;;5047511;28;19913;-70
2023/05/01 12:09:08;;;;;;;;;;;17.50;87.20;;;;;;5047242;28;20349;-70
2023/05/01 12:11:34;;;;;;;;;;;17.50;87.40;;;;;;5047450;28;20384;-69
2023/05/01 12:14:00;;;;;;;;;;;17.50;88.10;;;;;;5046840;28;19916;-69
2023/05/01 12:16:27;;;;;;;;;;;17.50;87.30;;;;;;5047598;28;19916;-69
2023/05/01 12:18:53;;;;;;;;;;;17.50;87.50;;;;;;5029140;28;19995;-69
2023/05/01 12:21:18;;;;;;;;;;;17.50;87.50;;;;;;5047268;28;20012;-69
2023/05/01 12:23:44;;;;;;;;;;;17.50;87.50;;;;;;5029200;28;19999;-69
2023/05/01 12:26:20;;;;;;;;;;;17.50;87.40;;;;;;5047441;28;20011;-69
2023/05/01 12:28:52;;;;;;;;;;;17.50;87.20;;;;;;5046951;28;19920;-69
2023/05/01 12:31:19;;;;;;;;;;;17.50;87.20;;;;;;5027361;28;19920;-69
2023/05/01 12:33:51;;;;;;;;;;;17.50;87.20;;;;;;5026825;28;19955;-69
2023/05/01 12:36:17;;;;;;;;;;;17.50;87.30;;;;;;5027280;28;19910;-69
2023/05/01 12:38:54;;;;;;;;;;;17.50;87.50;;;;;;5027126;28;19913;-69
2023/05/01 12:41:20;;;;;;;;;;;17.50;87.10;;;;;;5037234;28;19927;-69
2023/05/01 12:43:45;;;;;;;;;;;17.50;87.20;;;;;;5046373;28;19908;-69
2023/05/01 12:46:13;;;;;;;;;;;17.60;86.80;;;;;;5047221;28;20000;-69
2023/05/01 12:48:38;;;;;;;;;;;17.60;87.20;;;;;;5046366;28;19969;-69
2023/05/01 12:51:05;;;;;;;;;;;17.50;87.00;;;;;;5029219;28;20420;-69
2023/05/01 12:53:30;;;;;;;;;;;17.60;87.00;;;;;;5046523;28;19909;-69
2023/05/01 12:55:56;;;;;;;;;;;17.50;87.00;;;;;;5046906;28;20417;-69
2023/05/01 12:58:22;;;;;;;;;;;17.50;87.00;;;;;;5045358;28;19913;-69
2023/05/01 13:00:52;;;;;;;;;;;17.50;87.00;;;;;;5028315;28;19913;-69
2023/05/01 13:03:20;;;;;;;;;;;17.50;86.80;;;;;;5045949;28;19913;-69
2023/05/01 13:05:52;;;;;;;;;;;17.60;87.00;;;;;;5046503;28;19958;-69
2023/05/01 13:08:24;;;;;;;;;;;17.60;86.90;;;;;;5046010;28;20440;-69
2023/05/01 13:10:49;;;;;;;;;;;17.60;86.80;;;;;;5046433;28;19913;-69
2023/05/01 13:13:22;;;;;;;;;;;17.60;86.50;;;;;;5045918;28;19909;-69
2023/05/01 13:15:47;;;;;;;;;;;17.60;86.40;;;;;;5046477;28;19916;-69
2023/05/01 13:18:13;;;;;;;;;;;17.60;86.50;;;;;;5046173;28;19920;-69
2023/05/01 13:20:40;;;;;;;;;;;17.70;86.40;;;;;;5046322;28;20623;-69
2023/05/01 13:23:09;;;;;;;;;;;17.70;86.30;;;;;;5028163;28;19980;-69
2023/05/01 13:25:34;;;;;;;;;;;17.70;86.50;;;;;;5045899;28;19964;-69
2023/05/01 13:28:00;;;;;;;;;;;17.70;86.10;;;;;;5046039;28;19921;-69
2023/05/01 13:30:31;;;;;;;;;;;17.70;86.10;;;;;;5045257;28;20324;-69
2023/05/01 13:32:56;;;;;;;;;;;17.70;86.20;;;;;;5027735;28;20337;-69
2023/05/01 13:35:23;;;;;;;;;;;17.70;86.10;;;;;;5046069;28;20009;-69
2023/05/01 13:37:50;;;;;;;;;;;17.70;86.30;;;;;;5046003;28;20004;-69
2023/05/01 13:40:17;;;;;;;;;;;17.70;86.40;;;;;;5028337;28;20303;-69
2023/05/01 13:42:42;;;;;;;;;;;17.70;86.60;;;;;;5045099;28;19970;-69
2023/05/01 13:45:08;;;;;;;;;;;17.70;86.10;;;;;;5046022;28;19955;-69
2023/05/01 13:47:35;;;;;;;;;;;17.70;85.70;;;;;;5045629;28;20027;-69
2023/05/01 13:50:00;;;;;;;;;;;17.70;85.40;;;;;;5045913;28;20482;-69
2023/05/01 13:52:26;;;;;;;;;;;17.80;85.50;;;;;;5027857;28;19999;-69
2023/05/01 13:54:54;;;;;;;;;;;17.80;85.50;;;;;;5045874;28;19947;-69
2023/05/01 13:57:19;;;;;;;;;;;17.80;85.30;;;;;;5045833;28;20333;-69
2023/05/01 13:59:45;;;;;;;;;;;17.90;85.10;;;;;;5044558;27;19995;-69
2023/05/01 14:02:19;;;;;;;;;;;18.00;85.30;;;;;;5045354;28;19912;-69
2023/05/01 14:04:45;;;;;;;;;;;18.10;84.90;;;;;;5045931;28;20377;-69
2023/05/01 14:07:15;;;;;;;;;;;18.10;85.20;;;;;;5045579;28;19946;-69
2023/05/01 14:09:42;;;;;;;;;;;18.10;84.80;;;;;;5027891;28;20307;-69
2023/05/01 14:12:08;;;;;;;;;;;18.20;84.80;;;;;;5045196;28;19912;-69
2023/05/01 14:14:34;;;;;;;;;;;18.40;84.50;;;;;;5045696;28;19962;-69
2023/05/01 14:17:00;;;;;;;;;;;18.50;83.10;;;;;;5045481;28;20007;-70